Terminal Aerodrome Forecast
Issued by NWS

Home | Current Version | Previous Version | Graphics & Text | Print | Product List | Glossary On
Versions: 1 2 3 4 5 6 7 8 9 10 11 12
000
FTUS43 KPAH 281731
TAFOWB
TAF
KOWB 281731Z 2818/2918 19012G18KT P6SM SKC
     FM290000 17007KT P6SM FEW045
     FM291400 19010G18KT P6SM BKN050=

USA.gov is the U.S. government's official web portal to all federal, state and local government web resources and services.